GUCY

Conakry Airport

Conakry, Guinea
METAR GUCY 212100Z 30010KT 9999 SCT015 SCT110 27/26 Q1014 NOSIG
Observed Flight Rules
Jun-21 @ 21:00 UTC (an hour ago) Visual Flight Rules
Wind Visibility Clouds
300° at 10 knots 10,000+ meters
  • Scattered at 1,500' AGL
  • Scattered at 11,000' AGL
Temperatures Readings
Current 27°C / 81°F
Dewpoint 26°C / 79°F
Humidity 94%
Altimeter 29.94" Hg
Pressure 1014 hPa
Elevation 26
METAR GUCY 212100Z 30010KT 9999 SCT015 SCT110 27/26 Q1014 NOSIG
Observed Flight Rules
Jun-21 @ 21:00 UTC
(an hour ago)
VFR
Wind Visibility
300° at 10 knots 10,000+ meters
Clouds
  • Scattered at 1,500' AGL
  • Scattered at 11,000' AGL
Temperature Dewpoint
27°C / 81°F 26°C / 79°F
Humidity Altimeter Pressure
94% 29.94" Hg 1014 hPa